Garden Spring, Nevada Weather observations

Data are for 10 minute period ending at time listed.
 Day   Time    Ave.   Ave.  Ave.  Vector   Max.   Stn.    Total    Solar   Ave.  
  of    of     Air    Rel.  Wind   Wind    Wind   Baro.  Precip.   Rad.    Soil  
Year   Day     Temp.  Hum.  Speed  Dir.    Gust   Pres.                    Temp. 
2026   (PST)    F      %     mph   deg.    mph     mb.     in.     W/m2     F    
--------------------------------------------------------------------------------- 
 128   18:20   79.7     8    5.0   277      9.1   849.3    0.00      15    80.3  
 128   18:30   80.0     7    6.0   273     11.6   849.4    0.00      10    80.1  
 128   18:40   78.5     7    4.4   289      8.9   849.5    0.00       6    79.9  
 128   18:50   77.2     7    4.8   294      7.8   849.6    0.00       2    79.7  
 128   19:00   76.1     7    4.4   294      5.9   849.7    0.00       1    79.5  
 128   19:10   74.7     7    4.8   289      6.2   849.7    0.00       0    79.2  
 128   19:20   73.5     8    5.4   286      6.9   849.9    0.00       0    79.1  
 128   19:30   72.6     8    5.6   285      7.8   850.0    0.00       0    78.9  
 128   19:40   72.2     8    5.6   281      7.7   850.1    0.00       0    78.8  
 128   19:50   72.0     8    5.6   276      8.0   850.2    0.00       0    78.7  
 128   20:00   71.0     8    5.4   278      7.6   850.2    0.00       0    78.5  
 128   20:10   70.5     8    5.7   278      7.6   850.3    0.00       0    78.3  
 128   20:20   70.4     8    5.5   276      8.0   850.4    0.00       0    78.1  
 128   20:30   69.5     9    6.0   282      8.3   850.5    0.00       0    77.9  
 128   20:40   69.5     9    5.8   280      8.2   850.5    0.00       0    77.7  
 128   20:50   69.3     9    5.4   286      7.7   850.6    0.00       0    77.5  
 128   21:00   68.4    10    6.4   286      8.5   850.6    0.00       0    77.3  
 128   21:10   68.3    10    6.0   290      8.6   850.6    0.00       0    77.1  
 128   21:20   67.8    10    6.2   293      8.5   850.6    0.00       0    76.9  
 128   21:30   67.9    10    6.6   288      8.7   850.6    0.00       0    76.7  
 128   21:40   69.0    10    6.3   289      8.4   850.6    0.00       0    76.5  
 128   21:50   69.8     9    6.4   286      8.9   850.5    0.00       0    76.3  
 128   22:00   68.9    10    6.1   281      8.9   850.5    0.00       0    76.1  
 128   22:10   68.5    10    6.4   279      9.7   850.5    0.00       0    75.9  
 128   22:20   67.7    10    7.0   282     10.0   850.5    0.00       0    75.7  
 128   22:30   68.1    10    6.5   281      9.4   850.5    0.00       0    75.4  
 128   22:40   68.8    10    5.8   279      8.7   850.4    0.00       0    75.3  
 128   22:50   69.2     9    7.1   274     10.7   850.4    0.00       0    75.1  
 128   23:00   69.8     9    7.5   275     10.6   850.4    0.00       0    74.9  
 128   23:10   69.3     9    7.8   276     10.8   850.4    0.00       0    74.8  
 128   23:20   69.2     9    7.7   278     10.8   850.4    0.00       0    74.6  
 128   23:30   69.4     9    7.0   278     10.2   850.4    0.00       0    74.3  
 128   23:40   69.7     8    6.9   279      9.7   850.4    0.00       0    74.2  
 128   23:50   67.6     9    8.1   283     11.0   850.5    0.00       0    73.9  
 129    0:00   68.2     8    7.7   281     11.1   850.5    0.00       0    73.7  
 129    0:10   68.4     8    7.4   275     10.3   850.5    0.00       0    73.5  
 129    0:20   68.3     8    8.3   276     12.1   850.5    0.00       0    73.4  
 129    0:30   67.9     9    8.8   278     13.0   850.5    0.00       0    73.2  
 129    0:40   66.9     9    7.7   280     11.2   850.4    0.00       0    73.0  
 129    0:50   67.4     9    7.3   275     10.6   850.3    0.00       0    72.8  
 129    1:00   68.5     9    7.7   276     11.7   850.3    0.00       0    72.7  
 129    1:10   69.1     8    7.2   277     11.1   850.4    0.00       0    72.6  
 129    1:20   69.1     8    7.1   276     10.2   850.4    0.00       0    72.4  
 129    1:30   68.8     9    6.7   276     10.3   850.4    0.00       0    72.3  
 129    1:40   68.6     9    6.9   275     11.1   850.5    0.00       0    72.1  
 129    1:50   67.6     9    7.9   283     12.4   850.5    0.00       0    71.9  
 129    2:00   67.1     9    7.3   276     10.3   850.5    0.00       0    71.7  
 129    2:10   67.4    10    6.8   270      9.6   850.5    0.00       0    71.5  
 129    2:20   67.1    10    5.7   278      8.9   850.6    0.00       0    71.4  
 129    2:30   67.8    12    3.0   346      6.0   850.7    0.00       0    71.2  
 129    2:40   66.7    12    2.9   179      6.5   850.8    0.00       0    71.0  
 129    2:50   65.8    13    4.4   163      7.1   850.8    0.00       0    70.8  
 129    3:00   67.7    14    5.0   206      8.2   850.8    0.00       0    70.7  
 129    3:10   69.6    14    3.1   243      7.2   850.9    0.00       0    70.7  
 129    3:20   69.5    14    3.6   205      6.7   850.8    0.00       0    70.6  
 129    3:30   68.4    15    4.3   238      6.2   850.8    0.00       0    70.5  
 129    3:40   68.4    15    4.7   237      7.3   850.8    0.00       0    70.4  
 129    3:50   69.4    15    4.7   317      8.6   850.8    0.00       0    70.3  
 129    4:00   69.4    15    4.8   335      9.1   850.9    0.00       0    70.2  
 129    4:10   69.2    15    2.1   331      4.5   851.0    0.00       0    70.0  
 129    4:20   67.7    16    2.8   320      4.7   851.0    0.00       0    69.7  
 129    4:30   65.9    18    3.7   281      5.7   851.1    0.00       2    69.5  
 129    4:40   64.4    19    5.0   261      8.0   851.2    0.00       5    69.4  
 129    4:50   63.8    20    6.0   260      8.1   851.3    0.00      13    69.3  
 129    5:00   63.1    20    5.3   272      7.5   851.5    0.00      30    69.2  
 129    5:10   63.0    21    5.2   268      7.2   851.6    0.00      56    69.2  
 129    5:20   64.8    21    4.6   282      6.5   851.7    0.00      90    69.2  
 129    5:30   68.8    17    4.0   273      7.6   851.7    0.00     126    69.6  
 129    5:40   72.2    15    2.6   306      5.5   851.9    0.00     158    70.1  
 129    5:50   73.5    15    3.5   327      6.8   852.0    0.00     192    70.2  
 129    6:00   76.0    13    6.5    21     15.0   852.0    0.00     227    70.5  
 129    6:10   77.3    13    6.2    28     10.7   852.1    0.00     263    70.7  
 129    6:20   77.4    13    7.0    21     11.9   852.1    0.00     298    70.5  
 129    6:30   78.1    13    6.7    26     13.4   852.1    0.00     334    70.2  
 129    6:40   77.7    13    9.3    13     14.9   852.2    0.00     370    69.9  
 129    6:50   77.3    13    9.5    20     16.5   852.2    0.00     408    69.4  
 129    7:00   77.3    13    9.6    20     17.6   852.2    0.00     445    69.1  
 129    7:10   77.6    13    9.3    25     18.1   852.3    0.00     481    68.9  
 129    7:20   77.4    13    9.9    17     18.0   852.3    0.00     516    68.8  
 129    7:30   77.7    13    9.9    26     18.2   852.3    0.00     552    68.8  
 129    7:40   78.4    12    9.3    33     15.5   852.4    0.00     586    68.8  
 129    7:50   79.0    12    7.1    40     14.4   852.5    0.00     620    68.8  
 129    8:00   80.4    12    7.1    27     12.2   852.5    0.00     652    68.9  
 129    8:10   81.1    12    5.7    21     11.3   852.5    0.00     684    69.0  
 129    8:20   82.0    12    6.2     6     12.2   852.5    0.00     714    69.1  
 129    8:30   81.1    12    8.4    16     15.0   852.4    0.00     745    69.1  
 129    8:40   82.4    12    5.5    18     12.8   852.4    0.00     773    69.1  
 129    8:50   81.7    11    4.5    61     11.2   852.5    0.00     802    69.2  
 129    9:00   82.0    12    5.3    31     11.5   852.6    0.00     828    69.3  
 129    9:10   82.7    12    6.9    10     13.9   852.6    0.00     852    69.5  
 129    9:20   83.3    11    7.0     3     13.0   852.7    0.00     874    69.6  
 129    9:30   82.7    11    6.8   350     12.6   852.7    0.00     897    69.8  
 129    9:40   83.8    11    6.5     8     14.2   852.7    0.00     919    70.0  
 129    9:50   83.0    11    7.5   357     14.4   852.6    0.00     938    70.2  
 129   10:00   83.1    11    6.5   326     15.4   852.6    0.00     954    70.4  
 129   10:10   83.9    11    7.3    31     13.6   852.6    0.00     971    70.8  
 129   10:20   84.0    11    8.6    22     15.1   852.6    0.00     987    71.0  
 129   10:30   84.1    11    7.9    26     13.6   852.6    0.00     998    71.3  
 129   10:40   84.0    11    8.7    20     15.5   852.5    0.00    1009    71.6  
 129   10:50   83.8    11    7.6     6     16.0   852.5    0.00    1019    71.8  
 129   11:00   83.7    11    5.5    37     11.2   852.4    0.00    1025    72.1  
 129   11:10   85.0    10    6.0    10     12.2   852.4    0.00    1029    72.4  
 129   11:20   85.0    10    9.0    17     17.1   852.3    0.00    1033    72.7  
 129   11:30   84.5    10    7.1   348     16.3   852.3    0.00    1036    72.9  
 129   11:40   84.8    10    4.4   298      9.4   852.2    0.00    1036    73.2  
 129   11:50   85.7    10    6.7     7     12.5   852.1    0.00    1036    73.6  
 129   12:00   86.5    10    4.4    16     12.3   852.0    0.00    1037    73.8  
 129   12:10   85.1    10    5.0     4     12.1   851.8    0.00    1037    74.3  
 129   12:20   87.1    10    4.5   322     11.2   851.8    0.00    1035    74.8  
 129   12:30   86.3    10    6.1   272     12.0   851.7    0.00    1060    75.4  
 129   12:40   88.0     9    4.5    15     15.3   851.6    0.00    1055    76.0  
 129   12:50   88.3     9    6.4   304     13.4   851.5    0.00    1040    76.6  
 129   13:00   85.7    10    5.1   324     12.5   851.4    0.00     804    76.8  
 129   13:10   87.6     9    5.9   305     12.3   851.3    0.00    1053    77.2  
 129   13:20   87.5     9    5.2   329     17.0   851.1    0.00    1032    77.7  
 129   13:30   88.2     9   10.3   337     20.2   850.9    0.00    1010    78.2  
 129   13:40   88.0     9    6.4   326     17.7   850.9    0.00     977    78.5  
 129   13:50   87.9     9    8.9   313     16.9   850.8    0.00     941    78.9  
 129   14:00   87.8     9    7.8   312     18.7   850.7    0.00     766    79.2  
 129   14:10   86.6     9    7.6   275     21.7   850.6    0.00     834    79.4  
 129   14:20   87.6     9    8.2   252     17.0   850.4    0.00     856    79.9  
 129   14:30   88.2     9    6.4   294     15.5   850.4    0.00     943    80.4  
 129   14:40   89.1     9    8.0   350     22.9   850.1    0.00     922    81.0  
 129   14:50   87.7     9    6.9   254     15.9   850.1    0.00     670    81.2  
 129   15:00   85.9     9    6.5   285     12.7   850.1    0.00     459    81.0  
 129   15:10   88.7     8    4.6   277      9.5   850.0    0.00     848    81.5  
 129   15:20   89.0     8    8.1   318     15.6   849.9    0.00     802    82.2  
 129   15:30   88.8     8    5.9   323     13.4   849.9    0.00     604    82.4  
 129   15:40   86.0     8    5.2   258     10.4   849.8    0.00     410    82.2  
 129   15:50   88.3     8    5.4   320     11.6   849.7    0.00     656    82.4  
 129   16:00   87.8     8    9.0   327     16.0   849.8    0.00     586    82.7  
 129   16:10   85.4     9    8.7   318     17.1   849.9    0.00     226    82.6  
 129   16:20   83.2     9    7.5   325     14.5   849.9    0.00     158    82.3  
 129   16:30   85.1     9    6.9   315     13.1   849.9    0.00     381    82.4  
 129   16:40   84.9     9    7.2   324     14.7   850.0    0.00     271    82.7  
 129   16:50   83.0     9    5.5   314     11.5   850.0    0.00      74    82.7  
 129   17:00   82.0    10    4.9   324      9.3   850.0    0.00     132    82.6  
 129   17:10   83.5     9    5.3   328      9.8   850.0    0.00     247    82.7  
 129   17:20   84.0     9    7.9   354     13.4   850.0    0.00     227    82.9  
 129   17:30   84.0     9    7.4    14     13.8   850.1    0.00     166    82.9  
 129   17:40   82.2     9    6.2   358     11.3   850.1    0.00      71    82.7  
 129   17:50   81.0     9    6.4   345     10.9   850.1    0.00      40    82.5  
 129   18:00   80.0     9    5.3   357     10.1   850.1    0.00      38    82.3  
 129   18:10   80.0    10    4.2   340      7.0   850.1    0.00      52    82.2  

Return to Garden Spring, Nevada graphs page.


Western Regional Climate Center,wrcc@dri.edu